Time;durP1;ratioP1;P1;durP2;ratioP2;P2;SDS_P1;SDS_P2;PMS_P1;PMS_P2;Temp;Humidity;BMP_temperature;BMP_pressure;BME280_temperature;BME280_humidity;BME280_pressure;Samples;Min_cycle;Max_cycle;Signal;HPM_P1;HPM_P2
2021/08/20 00:03:48;;;;;;;6.40;4.40;;;;;;;20.50;61.67;97950.47;8387749;28;20249;-85
2021/08/20 00:07:51;;;;;;;6.87;5.10;;;;;;;20.29;62.70;97955.75;8387854;28;20204;-85
2021/08/20 00:11:53;;;;;;;4.17;3.80;;;;;;;20.45;61.96;97960.56;8387713;28;20223;-85
2021/08/20 00:15:58;;;;;;;4.90;4.40;;;;;;;20.50;62.06;97960.97;8387552;28;20201;-85
2021/08/20 00:20:00;;;;;;;5.20;4.00;;;;;;;20.49;61.96;97959.34;8387795;28;20204;-85
2021/08/20 00:24:04;;;;;;;5.10;4.60;;;;;;;20.50;61.99;97959.22;8387357;28;20514;-85
2021/08/20 00:28:07;;;;;;;4.70;4.20;;;;;;;20.48;62.26;97952.38;8387199;28;20206;-86
2021/08/20 00:32:11;;;;;;;5.07;4.33;;;;;;;20.50;62.02;97942.56;8386953;28;20227;-85
2021/08/20 00:36:14;;;;;;;4.57;4.00;;;;;;;20.47;62.64;97956.81;8386986;28;20212;-85
2021/08/20 00:40:19;;;;;;;5.20;3.90;;;;;;;20.47;62.75;97953.38;8386000;28;20246;-85
2021/08/20 00:44:22;;;;;;;5.30;4.80;;;;;;;20.39;62.76;97947.91;8386652;28;20386;-85
2021/08/20 00:48:27;;;;;;;5.60;4.90;;;;;;;20.41;62.93;97949.47;8386521;28;20204;-85
2021/08/20 00:52:30;;;;;;;5.37;4.73;;;;;;;20.34;63.23;97942.22;8386437;28;20228;-85
2021/08/20 00:56:32;;;;;;;5.10;4.70;;;;;;;20.34;63.04;97945.69;8386334;28;20392;-85
2021/08/20 01:00:35;;;;;;;6.53;5.17;;;;;;;20.34;62.85;97935.16;8386224;28;20200;-85
2021/08/20 01:04:40;;;;;;;5.20;4.50;;;;;;;20.34;62.86;97932.53;8386077;28;20245;-85
2021/08/20 01:08:42;;;;;;;4.87;4.27;;;;;;;20.37;63.17;97932.28;8385996;28;20207;-85
2021/08/20 01:12:45;;;;;;;6.10;4.60;;;;;;;20.33;63.06;97925.59;8385773;28;20228;-85
2021/08/20 01:16:48;;;;;;;5.47;4.90;;;;;;;20.38;63.18;97928.69;8385694;28;20200;-85
2021/08/20 01:20:53;;;;;;;4.77;4.37;;;;;;;20.37;63.11;97924.41;8385434;28;20519;-85
2021/08/20 01:25:00;;;;;;;4.60;4.20;;;;;;;20.35;63.21;97921.03;8385643;28;20204;-85
2021/08/20 01:29:03;;;;;;;5.03;4.40;;;;;;;20.39;63.57;97921.59;8385419;28;20211;-85
2021/08/20 01:33:06;;;;;;;4.90;4.33;;;;;;;20.40;63.56;97916.22;8385093;28;20235;-85
2021/08/20 01:37:09;;;;;;;4.80;4.33;;;;;;;20.37;63.46;97915.66;8384937;28;20221;-85
2021/08/20 01:41:13;;;;;;;6.60;4.73;;;;;;;20.34;63.00;97927.28;8385688;28;20241;-85
2021/08/20 01:45:16;;;;;;;5.83;4.30;;;;;;;20.33;63.21;97922.97;8384835;28;20511;-84
2021/08/20 01:49:19;;;;;;;7.10;4.80;;;;;;;20.30;63.50;97917.97;8384135;28;20204;-84
2021/08/20 01:53:22;;;;;;;5.03;4.50;;;;;;;20.35;63.62;97918.41;8384706;28;20242;-85
2021/08/20 01:57:26;;;;;;;5.27;4.77;;;;;;;20.30;64.15;97917.97;8384322;28;20207;-85
2021/08/20 02:01:30;;;;;;;5.50;4.93;;;;;;;20.31;63.85;97920.50;8384273;28;20211;-84
2021/08/20 02:05:33;;;;;;;4.73;4.33;;;;;;;20.27;64.04;97926.94;8383942;28;20226;-85
2021/08/20 02:09:36;;;;;;;5.37;4.80;;;;;;;20.26;63.96;97927.09;8384343;28;20524;-85
2021/08/20 02:13:40;;;;;;;5.87;4.97;;;;;;;20.28;63.20;97931.25;8383851;28;20235;-85
2021/08/20 02:17:43;;;;;;;5.97;5.23;;;;;;;20.16;63.84;97931.44;8383596;28;20207;-85
2021/08/20 02:21:46;;;;;;;5.90;4.60;;;;;;;20.21;63.71;97924.84;8383516;28;20210;-85
2021/08/20 02:25:49;;;;;;;5.93;5.10;;;;;;;20.23;63.72;97927.34;8383866;28;20224;-85
2021/08/20 02:29:53;;;;;;;5.50;4.90;;;;;;;20.22;63.76;97928.28;8383353;28;20213;-85
2021/08/20 02:33:55;;;;;;;6.43;4.83;;;;;;;20.16;64.33;97923.56;8383236;28;20230;-84
2021/08/20 02:37:58;;;;;;;6.20;4.63;;;;;;;20.19;63.91;97925.94;8383202;28;20247;-85
2021/08/20 02:42:01;;;;;;;4.83;4.40;;;;;;;20.28;63.96;97933.88;8383321;28;20401;-84
2021/08/20 02:46:05;;;;;;;4.90;4.40;;;;;;;20.27;63.95;97924.31;8383405;28;20200;-85
2021/08/20 02:50:09;;;;;;;5.10;4.60;;;;;;;20.23;64.09;97930.81;8383211;28;20206;-85
2021/08/20 02:54:12;;;;;;;5.13;4.70;;;;;;;20.21;64.12;97922.22;8382963;28;20213;-85
2021/08/20 02:58:15;;;;;;;5.90;4.87;;;;;;;20.22;64.04;97916.00;8383021;28;20202;-85
2021/08/20 03:02:19;;;;;;;7.53;5.20;;;;;;;20.21;63.94;97916.13;8382461;28;20204;-85
2021/08/20 03:06:22;;;;;;;5.50;5.00;;;;;;;20.17;64.33;97926.06;8382696;28;20461;-85
2021/08/20 03:10:25;;;;;;;5.50;4.90;;;;;;;20.17;63.79;97920.81;8382648;28;20216;-83
2021/08/20 03:14:28;;;;;;;5.67;5.03;;;;;;;20.15;63.79;97920.09;8383147;28;20208;-85
2021/08/20 03:18:32;;;;;;;5.10;4.60;;;;;;;20.18;63.69;97919.88;8382958;28;20201;-85
2021/08/20 03:22:35;;;;;;;5.27;4.77;;;;;;;20.19;63.91;97918.06;8382440;28;20211;-85
2021/08/20 03:26:38;;;;;;;6.10;4.70;;;;;;;20.14;63.71;97914.97;8382487;28;20472;-86
2021/08/20 03:30:40;;;;;;;7.53;5.17;;;;;;;20.14;63.65;97914.97;8382549;28;20487;-86
2021/08/20 03:34:45;;;;;;;5.47;4.93;;;;;;;20.14;63.89;97913.16;8382390;28;20200;-85
2021/08/20 03:38:49;;;;;;;5.43;4.93;;;;;;;20.13;63.65;97918.59;8382087;28;20242;-86
2021/08/20 03:42:52;;;;;;;7.47;4.93;;;;;;;20.12;63.74;97917.72;8382286;28;20499;-85
2021/08/20 03:46:56;;;;;;;6.70;5.20;;;;;;;20.15;63.66;97911.41;8382186;28;20205;-86
2021/08/20 03:51:00;;;;;;;8.00;4.70;;;;;;;20.12;63.66;97915.09;8382028;28;20221;-85
2021/08/20 03:55:03;;;;;;;5.97;4.80;;;;;;;20.13;63.80;97924.66;8381980;28;20201;-86
2021/08/20 03:59:06;;;;;;;4.90;4.50;;;;;;;20.13;64.14;97929.94;8382037;28;20200;-83
2021/08/20 04:03:09;;;;;;;6.37;4.70;;;;;;;20.08;64.05;97935.56;8381913;28;20298;-84
2021/08/20 04:07:14;;;;;;;5.63;4.70;;;;;;;20.10;64.39;97938.06;8381854;28;20227;-83
2021/08/20 04:11:17;;;;;;;5.37;4.67;;;;;;;20.13;64.25;97935.19;8381649;28;20228;-83
2021/08/20 04:15:20;;;;;;;5.20;4.70;;;;;;;20.07;64.41;97936.53;8386724;28;20257;-83
2021/08/20 04:19:23;;;;;;;6.97;4.87;;;;;;;20.10;64.32;97931.03;8388280;28;20383;-84
2021/08/20 04:23:27;;;;;;;5.17;4.57;;;;;;;20.07;64.31;97931.28;8387265;28;20206;-84
2021/08/20 04:27:30;;;;;;;5.53;5.03;;;;;;;20.08;64.08;97935.56;8387282;28;20201;-84
2021/08/20 04:31:32;;;;;;;5.73;5.13;;;;;;;20.02;64.43;97943.13;8387078;28;20219;-83
2021/08/20 04:35:35;;;;;;;5.57;4.67;;;;;;;20.08;64.57;97945.25;8387043;28;20213;-83
2021/08/20 04:39:39;;;;;;;5.20;4.50;;;;;;;20.05;64.82;97943.72;8386760;28;20244;-84
2021/08/20 04:43:42;;;;;;;5.13;4.63;;;;;;;20.09;64.81;97953.00;8386922;28;20515;-83
2021/08/20 04:47:45;;;;;;;7.00;4.67;;;;;;;19.98;64.99;97944.34;8386748;28;20210;-83
2021/08/20 04:51:48;;;;;;;5.80;5.07;;;;;;;20.00;64.92;97948.50;8386513;28;20414;-83
2021/08/20 04:55:52;;;;;;;7.30;5.00;;;;;;;20.03;65.21;97948.25;8386344;28;20209;-84
2021/08/20 04:59:55;;;;;;;7.00;5.47;;;;;;;20.02;65.04;97951.00;8386342;28;20391;-84
2021/08/20 05:03:59;;;;;;;5.93;5.30;;;;;;;20.04;64.82;97952.53;8386062;28;20648;-84
2021/08/20 05:08:01;;;;;;;6.10;5.50;;;;;;;20.00;64.82;97953.75;8386102;28;20199;-84
2021/08/20 05:12:08;;;;;;;8.50;5.40;;;;;;;20.02;64.56;97957.09;8385859;28;20230;-84
2021/08/20 05:16:10;;;;;;;6.27;4.97;;;;;;;19.87;65.54;97959.19;8385876;28;20215;-84
2021/08/20 05:20:14;;;;;;;6.47;4.87;;;;;;;19.65;66.29;97949.59;8385565;28;20367;-84
2021/08/20 05:24:16;;;;;;;6.13;5.43;;;;;;;19.90;65.35;97966.84;8385530;28;20218;-84
2021/08/20 05:28:21;;;;;;;5.90;5.40;;;;;;;19.98;64.72;97971.47;8385479;28;20206;-84
2021/08/20 05:32:24;;;;;;;6.47;5.37;;;;;;;19.93;65.53;97965.75;8385035;28;20231;-83
2021/08/20 05:36:27;;;;;;;6.67;4.67;;;;;;;20.03;64.81;97965.81;8385201;28;20200;-84
2021/08/20 05:40:30;;;;;;;9.60;5.50;;;;;;;19.90;65.67;97966.84;8384727;28;20235;-84
2021/08/20 05:44:35;;;;;;;6.33;4.73;;;;;;;20.02;65.00;97970.25;8384910;28;20219;-84
2021/08/20 05:48:38;;;;;;;7.90;5.30;;;;;;;20.07;64.79;97977.75;8384809;28;20199;-84
2021/08/20 05:52:40;;;;;;;6.27;5.67;;;;;;;20.06;64.66;97978.72;8384597;28;20224;-84
2021/08/20 05:56:43;;;;;;;6.90;5.47;;;;;;;19.98;64.42;97974.09;8384472;28;20199;-84
2021/08/20 06:00:48;;;;;;;7.87;5.40;;;;;;;20.05;64.36;97977.06;8384352;28;20363;-84
2021/08/20 06:04:51;;;;;;;7.27;5.50;;;;;;;20.04;64.05;97978.81;8384141;28;20265;-84
2021/08/20 06:08:54;;;;;;;6.13;5.50;;;;;;;20.10;64.17;97977.47;8384214;28;20365;-84
2021/08/20 06:12:57;;;;;;;5.83;5.10;;;;;;;20.16;64.28;97981.41;8383898;28;20227;-84
2021/08/20 06:17:01;;;;;;;8.73;5.80;;;;;;;20.11;64.53;97984.44;8383910;28;20206;-84
2021/08/20 06:21:04;;;;;;;7.70;5.30;;;;;;;20.16;63.84;97978.78;8383727;28;20209;-84
2021/08/20 06:25:07;;;;;;;5.70;4.80;;;;;;;20.19;64.02;97983.78;8383653;28;20395;-84
2021/08/20 06:29:10;;;;;;;6.50;5.07;;;;;;;20.22;64.16;97992.25;8383446;28;20200;-84
2021/08/20 06:33:14;;;;;;;5.97;5.37;;;;;;;20.21;63.88;97992.38;8383626;28;20227;-84
2021/08/20 06:37:17;;;;;;;7.80;5.37;;;;;;;20.18;63.83;97990.00;8382862;28;20498;-83
2021/08/20 06:41:20;;;;;;;6.30;5.70;;;;;;;20.29;64.04;98005.72;8383234;28;20549;-86
2021/08/20 06:45:23;;;;;;;6.30;5.70;;;;;;;20.23;64.21;98011.47;8383024;28;20205;-83
2021/08/20 06:49:27;;;;;;;7.90;6.30;;;;;;;20.23;64.57;98011.47;8383043;28;20207;-84
2021/08/20 06:53:30;;;;;;;7.27;5.87;;;;;;;20.44;64.01;98012.31;8382789;28;20223;-84
2021/08/20 06:57:32;;;;;;;6.60;5.97;;;;;;;20.52;63.91;98022.19;8382807;28;20201;-84
2021/08/20 07:01:35;;;;;;;8.33;5.80;;;;;;;20.57;63.52;98008.66;8382817;28;20286;-84
2021/08/20 07:05:40;;;;;;;6.10;5.50;;;;;;;20.68;63.44;98008.63;8382303;28;20226;-83
2021/08/20 07:09:43;;;;;;;6.57;5.63;;;;;;;20.69;63.79;98013.75;8382567;28;20201;-84
2021/08/20 07:13:46;;;;;;;6.30;5.70;;;;;;;20.66;63.91;98007.91;8382473;28;20236;-84
2021/08/20 07:17:48;;;;;;;6.43;5.70;;;;;;;20.70;63.36;98007.50;8382330;28;20272;-83
2021/08/20 07:21:53;;;;;;;5.33;4.83;;;;;;;20.78;63.30;98004.22;8382329;28;20209;-84
2021/08/20 07:25:55;;;;;;;8.37;5.57;;;;;;;20.82;62.49;98003.00;8382462;28;20203;-84
2021/08/20 07:29:58;;;;;;;7.20;5.27;;;;;;;20.94;62.11;98003.72;8382199;28;20223;-84
2021/08/20 07:34:01;;;;;;;7.50;5.40;;;;;;;21.03;61.36;98013.47;8382146;28;20231;-84
2021/08/20 07:38:05;;;;;;;5.33;4.47;;;;;;;21.14;61.11;98014.34;8382347;28;20231;-84
2021/08/20 07:42:08;;;;;;;5.70;4.50;;;;;;;21.16;61.26;98009.78;8382298;28;20208;-84
2021/08/20 07:46:11;;;;;;;6.23;4.70;;;;;;;21.26;60.45;98013.25;8382027;28;20202;-84
2021/08/20 07:50:14;;;;;;;5.43;4.50;;;;;;;21.35;60.50;98017.72;8387118;28;20207;-84
2021/08/20 07:54:18;;;;;;;6.47;4.50;;;;;;;21.65;58.84;98016.84;8388586;28;20234;-84
2021/08/20 07:58:21;;;;;;;6.37;4.13;;;;;;;22.47;56.88;98019.22;8388082;28;20204;-84
2021/08/20 08:02:24;;;;;;;7.67;4.40;;;;;;;22.35;56.22;98015.91;8388008;28;20203;-83
2021/08/20 08:06:27;;;;;;;8.43;4.43;;;;;;;22.46;57.19;98023.66;8387865;28;20220;-85
2021/08/20 08:10:35;;;;;;;6.07;4.93;;;;;;;23.22;55.02;98028.03;8388121;28;20210;-85
2021/08/20 08:14:37;;;;;;;8.27;5.63;;;;;;;23.56;54.64;98025.59;8387618;28;20227;-85
2021/08/20 08:18:40;;;;;;;7.30;4.60;;;;;;;23.50;53.99;98023.56;8387297;28;20204;-85
2021/08/20 08:22:44;;;;;;;6.10;4.93;;;;;;;23.31;54.41;98035.06;8387372;28;20208;-84
2021/08/20 08:26:48;;;;;;;5.23;4.73;;;;;;;23.17;55.40;98024.97;8387233;28;20210;-85
2021/08/20 08:30:51;;;;;;;7.90;4.83;;;;;;;22.84;56.40;98027.16;8387302;28;20212;-84
2021/08/20 08:34:54;;;;;;;7.57;5.03;;;;;;;22.69;57.09;98037.34;8387109;28;20254;-85
2021/08/20 08:38:57;;;;;;;7.53;5.50;;;;;;;22.58;57.26;98043.66;8386882;28;20497;-85
2021/08/20 08:43:01;;;;;;;5.57;4.60;;;;;;;22.53;57.98;98037.97;8386932;28;20398;-84
2021/08/20 08:47:05;;;;;;;7.20;5.27;;;;;;;22.40;57.79;98047.97;8386703;28;20210;-85
2021/08/20 08:51:09;;;;;;;6.80;5.10;;;;;;;22.48;57.67;98040.19;8386514;28;20222;-85
2021/08/20 08:55:12;;;;;;;6.87;4.37;;;;;;;23.52;55.39;98044.56;8386565;28;20233;-85
2021/08/20 08:59:17;;;;;;;5.70;4.67;;;;;;;23.72;53.07;98040.84;8385955;28;20267;-84
2021/08/20 09:03:25;;;;;;;5.00;4.17;;;;;;;23.86;53.26;98039.50;8386331;28;20211;-85
2021/08/20 09:07:29;;;;;;;6.67;5.03;;;;;;;24.52;51.17;98038.28;8386370;28;20482;-84
2021/08/20 09:11:32;;;;;;;10.50;5.17;;;;;;;25.38;48.06;98027.81;8386057;28;20199;-85
2021/08/20 09:15:36;;;;;;;8.87;5.00;;;;;;;25.61;48.01;98026.22;8385748;28;20238;-85
2021/08/20 09:19:39;;;;;;;5.53;4.90;;;;;;;26.10;46.57;98034.31;8385786;28;20270;-85
2021/08/20 09:23:42;;;;;;;6.10;4.60;;;;;;;26.89;47.32;98023.94;8385674;28;20208;-85
2021/08/20 09:27:45;;;;;;;5.47;4.00;;;;;;;26.04;48.29;98032.28;8385478;28;20200;-85
2021/08/20 09:31:52;;;;;;;6.27;4.23;;;;;;;25.91;47.62;98032.78;8385655;28;20223;-85
2021/08/20 09:36:00;;;;;;;5.27;4.37;;;;;;;25.41;48.94;98033.63;8385272;28;20234;-85
2021/08/20 09:40:06;;;;;;;7.47;5.07;;;;;;;26.05;47.68;98038.44;8384790;28;20228;-85
2021/08/20 09:44:17;;;;;;;7.07;4.60;;;;;;;26.32;47.40;98038.09;8385102;28;20207;-85
2021/08/20 09:53:27;;;;;;;8.77;4.97;;;;;;;25.37;48.45;98021.69;8574308;27;1281542;-86
2021/08/20 09:57:29;;;;;;;6.60;4.80;;;;;;;25.85;48.35;98033.38;8581236;27;20205;-84
2021/08/20 10:01:34;;;;;;;6.17;4.97;;;;;;;26.49;44.71;98024.81;8581476;27;20210;-86
2021/08/20 10:05:38;;;;;;;5.17;4.37;;;;;;;25.73;46.46;98026.75;8562262;27;20228;-85
2021/08/20 10:09:43;;;;;;;6.23;4.63;;;;;;;26.79;42.97;98020.66;8546648;27;20224;-85
2021/08/20 10:13:46;;;;;;;7.13;4.47;;;;;;;26.55;45.42;98016.19;8546392;27;20204;-85
2021/08/20 10:17:49;;;;;;;8.23;4.93;;;;;;;25.90;44.81;98017.00;8546093;27;20200;-86
2021/08/20 10:21:53;;;;;;;4.97;4.40;;;;;;;26.13;45.71;98009.25;8546293;27;20203;-86
2021/08/20 10:25:57;;;;;;;5.70;4.30;;;;;;;27.47;43.79;98013.94;8546415;27;20196;-86
2021/08/20 10:30:00;;;;;;;6.43;4.03;;;;;;;28.10;41.80;98010.38;8545916;27;20235;-86
2021/08/20 10:34:32;;;;;;;5.27;4.70;;;;;;;26.70;41.98;98003.91;8546279;27;20223;-88
2021/08/20 10:38:41;;;;;;;7.10;4.10;;;;;;;27.56;41.03;98009.38;8546096;27;20539;-86
2021/08/20 10:42:48;;;;;;;4.83;4.33;;;;;;;27.93;40.01;98021.16;8545783;27;20498;-86
2021/08/20 10:47:02;;;;;;;4.93;4.40;;;;;;;28.35;39.71;98005.66;8546088;27;20487;-85
2021/08/20 10:51:05;;;;;;;5.97;4.17;;;;;;;28.32;39.91;98011.38;8545708;27;20240;-85
2021/08/20 10:55:29;;;;;;;4.03;3.50;;;;;;;27.07;42.33;98014.91;8545836;27;20493;-85
2021/08/20 10:59:56;;;;;;;3.50;2.97;;;;;;;26.91;39.68;98010.47;8545444;27;20198;-86
2021/08/20 11:03:59;;;;;;;4.63;3.67;;;;;;;27.84;37.90;98017.69;8525965;27;20218;-86
2021/08/20 11:08:02;;;;;;;6.57;3.97;;;;;;;28.01;38.06;98012.31;8522216;27;20393;-86
2021/08/20 11:12:05;;;;;;;3.67;2.90;;;;;;;28.56;38.38;98011.19;8521855;27;20231;-86
2021/08/20 11:16:09;;;;;;;3.40;3.10;;;;;;;28.67;37.81;98007.22;8521732;27;20200;-86
2021/08/20 11:20:19;;;;;;;5.97;3.97;;;;;;;28.66;37.55;98010.91;8521792;27;20513;-85
2021/08/20 11:24:22;;;;;;;3.30;3.00;;;;;;;28.00;38.31;98011.44;8521619;27;20201;-85
2021/08/20 11:28:26;;;;;;;2.87;2.57;;;;;;;27.28;40.37;98011.69;8521561;27;20479;-86
2021/08/20 11:32:31;;;;;;;5.37;3.00;;;;;;;26.79;40.38;98010.03;8521226;27;20227;-85
2021/08/20 11:36:34;;;;;;;4.77;3.03;;;;;;;26.17;41.07;98015.88;8521377;27;20383;-84
2021/08/20 11:40:50;;;;;;;6.33;3.10;;;;;;;25.65;42.05;98022.25;8521011;27;20234;-86
2021/08/20 11:44:52;;;;;;;3.10;2.57;;;;;;;25.46;42.21;98026.03;8521157;27;20200;-85
2021/08/20 11:48:58;;;;;;;4.17;2.63;;;;;;;25.88;41.45;98022.47;8520983;27;20506;-85
2021/08/20 11:53:01;;;;;;;3.97;2.80;;;;;;;25.47;41.46;98022.38;8520884;27;20309;-85
2021/08/20 11:57:06;;;;;;;4.63;2.53;;;;;;;25.34;42.44;98022.84;8520432;27;20199;-85
2021/08/20 12:01:12;;;;;;;4.03;2.40;;;;;;;25.18;40.53;98023.56;8520572;27;20382;-85
2021/08/20 12:05:18;;;;;;;3.43;3.00;;;;;;;25.38;40.24;98014.56;8520364;27;20261;-85
2021/08/20 12:09:23;;;;;;;3.03;2.20;;;;;;;25.36;39.65;98020.03;8520204;27;20203;-85
2021/08/20 12:13:26;;;;;;;5.10;2.50;;;;;;;25.66;39.40;98017.78;8519085;27;20227;-85
2021/08/20 12:17:31;;;;;;;2.90;2.30;;;;;;;25.85;40.06;98022.78;8519987;27;20500;-85
2021/08/20 12:21:35;;;;;;;2.63;2.40;;;;;;;27.00;39.02;98013.97;8519942;27;20203;-85
2021/08/20 12:25:40;;;;;;;4.03;2.60;;;;;;;27.25;37.05;98012.88;8519597;27;20200;-85
2021/08/20 12:30:11;;;;;;;3.93;2.60;;;;;;;27.73;35.96;98022.59;8519507;27;20200;-85
2021/08/20 12:34:13;;;;;;;4.47;2.47;;;;;;;27.88;36.28;98018.19;8519386;27;20207;-85
2021/08/20 12:38:19;;;;;;;3.30;2.23;;;;;;;28.09;35.93;98014.88;8519255;27;20201;-86
2021/08/20 12:42:23;;;;;;;2.37;2.17;;;;;;;28.50;36.20;98013.69;8519411;27;20202;-85
2021/08/20 12:46:34;;;;;;;3.10;2.80;;;;;;;28.41;34.58;98000.47;8519277;27;20200;-86
2021/08/20 12:50:39;;;;;;;3.23;2.53;;;;;;;27.87;36.97;98013.84;8518823;27;20251;-86
2021/08/20 12:54:43;;;;;;;4.10;2.50;;;;;;;27.14;37.01;98018.53;8518783;27;20521;-85
2021/08/20 12:58:45;;;;;;;5.50;2.40;;;;;;;26.89;37.74;98012.50;8518625;27;20504;-86
2021/08/20 13:02:48;;;;;;;6.87;2.73;;;;;;;26.52;38.04;98013.84;8518445;27;20210;-86
2021/08/20 13:07:11;;;;;;;2.93;2.20;;;;;;;27.14;37.32;98018.53;8518188;27;20221;-85
2021/08/20 13:11:15;;;;;;;3.80;2.53;;;;;;;27.30;36.98;98017.66;8518127;27;20229;-85
2021/08/20 13:15:18;;;;;;;6.90;2.37;;;;;;;27.88;36.17;98012.84;8518050;27;20199;-86
2021/08/20 13:19:21;;;;;;;2.93;2.47;;;;;;;28.20;35.62;98013.66;8517879;27;20364;-85
2021/08/20 13:23:25;;;;;;;2.70;2.20;;;;;;;28.56;34.05;98000.53;8517990;27;20208;-86
2021/08/20 13:27:29;;;;;;;2.57;2.37;;;;;;;28.71;34.75;97999.69;8517492;27;20217;-86
2021/08/20 13:31:31;;;;;;;3.80;2.43;;;;;;;28.68;33.82;97998.22;8517545;27;20228;-86
2021/08/20 13:35:34;;;;;;;2.87;2.53;;;;;;;28.87;34.12;97996.88;8517581;27;20215;-85
2021/08/20 13:39:37;;;;;;;2.37;2.17;;;;;;;28.92;34.18;97991.81;8517512;27;20204;-85
2021/08/20 13:43:41;;;;;;;3.90;2.43;;;;;;;28.24;35.77;98007.78;8517487;27;20362;-85
2021/08/20 13:47:44;;;;;;;4.57;2.43;;;;;;;27.57;36.29;98011.06;8517300;27;20515;-86
2021/08/20 13:51:47;;;;;;;2.60;2.40;;;;;;;27.00;37.65;98009.47;8517061;28;20236;-85
2021/08/20 13:55:50;;;;;;;4.17;2.50;;;;;;;26.67;38.12;98011.38;8517357;28;20197;-86
2021/08/20 13:59:54;;;;;;;3.10;2.33;;;;;;;26.49;37.32;98011.56;8517214;28;20304;-87
2021/08/20 14:03:57;;;;;;;3.87;2.73;;;;;;;27.43;36.66;98009.94;8517639;27;20226;-85
2021/08/20 14:08:01;;;;;;;3.93;2.40;;;;;;;28.02;35.44;98006.78;8516973;28;20198;-85
2021/08/20 14:12:04;;;;;;;4.20;2.47;;;;;;;27.99;33.96;98003.66;8516839;28;20227;-86
2021/08/20 14:16:08;;;;;;;2.63;2.27;;;;;;;28.27;34.28;97999.44;8516956;28;20210;-85
2021/08/20 14:20:13;;;;;;;4.23;2.37;;;;;;;27.28;35.12;97996.59;8516815;28;20204;-86
2021/08/20 14:24:16;;;;;;;3.70;2.37;;;;;;;26.83;37.14;98000.72;8516845;28;20211;-86
2021/08/20 14:28:19;;;;;;;6.73;2.53;;;;;;;26.52;37.35;98004.06;8517013;28;20505;-85
2021/08/20 14:32:23;;;;;;;4.30;2.53;;;;;;;26.41;37.61;98007.06;8516692;28;20231;-86
2021/08/20 14:36:26;;;;;;;4.67;2.80;;;;;;;27.22;36.61;98009.69;8517083;27;20197;-85
2021/08/20 14:40:29;;;;;;;4.27;2.40;;;;;;;27.43;35.35;98001.16;8523281;27;20204;-84
2021/08/20 14:44:32;;;;;;;4.00;2.20;;;;;;;27.55;35.61;97998.91;8523138;27;20202;-87
2021/08/20 14:48:36;;;;;;;3.60;2.40;;;;;;;27.56;35.08;98008.56;8523070;27;20205;-84
2021/08/20 14:52:39;;;;;;;5.73;2.60;;;;;;;27.61;35.63;98012.38;8522454;27;20239;-85
2021/08/20 14:56:41;;;;;;;4.50;2.40;;;;;;;27.66;36.06;97995.88;8522905;27;20207;-85
2021/08/20 15:00:44;;;;;;;2.80;2.50;;;;;;;27.57;35.16;98007.56;8522379;27;20206;-85
2021/08/20 15:04:49;;;;;;;3.10;2.43;;;;;;;27.59;34.42;98008.22;8522369;27;20535;-85
2021/08/20 15:08:51;;;;;;;3.33;2.47;;;;;;;27.69;34.51;98009.63;8521977;27;20200;-85
2021/08/20 15:12:56;;;;;;;3.03;2.30;;;;;;;27.48;34.48;98012.09;8521733;27;20227;-85
2021/08/20 15:16:59;;;;;;;3.10;2.47;;;;;;;27.47;34.86;98016.59;8521332;27;20397;-86
2021/08/20 15:21:04;;;;;;;2.97;2.40;;;;;;;27.08;35.31;98011.25;8521567;27;20198;-87
2021/08/20 15:25:07;;;;;;;2.77;1.90;;;;;;;26.46;36.62;98011.88;8521237;27;20208;-85
2021/08/20 15:29:10;;;;;;;3.30;2.30;;;;;;;26.65;37.38;98013.38;8521246;27;20199;-85
2021/08/20 15:33:13;;;;;;;2.47;2.10;;;;;;;26.95;36.41;98013.63;8521037;27;20235;-85
2021/08/20 15:37:17;;;;;;;2.63;2.43;;;;;;;26.99;35.21;98015.75;8520869;27;20203;-85
2021/08/20 15:41:20;;;;;;;3.97;2.40;;;;;;;27.10;35.99;98011.91;8520881;27;20200;-85
2021/08/20 15:45:23;;;;;;;2.90;2.37;;;;;;;27.10;35.47;98015.38;8521097;27;20199;-86
2021/08/20 15:49:26;;;;;;;3.00;2.30;;;;;;;26.99;35.45;98021.06;8520778;27;20206;-85
2021/08/20 15:53:30;;;;;;;5.13;2.20;;;;;;;26.79;35.87;98025.13;8520371;27;20231;-85
2021/08/20 15:57:33;;;;;;;3.20;1.80;;;;;;;26.29;36.28;98019.00;8520289;27;20200;-85
2021/08/20 16:01:36;;;;;;;2.47;2.07;;;;;;;26.00;36.60;98023.00;8520082;27;20286;-85
2021/08/20 16:05:39;;;;;;;3.57;1.97;;;;;;;26.05;36.18;98020.69;8520142;27;20232;-85
2021/08/20 16:09:43;;;;;;;2.93;2.00;;;;;;;26.20;36.53;98026.16;8520086;27;20385;-84
2021/08/20 16:13:46;;;;;;;3.40;1.97;;;;;;;26.07;36.91;98023.19;8519780;27;20227;-85
2021/08/20 16:17:49;;;;;;;2.33;1.80;;;;;;;25.97;37.34;98025.16;8519712;27;20601;-85
2021/08/20 16:21:53;;;;;;;2.70;1.60;;;;;;;25.98;37.40;98024.16;8519563;27;20200;-85
2021/08/20 16:25:57;;;;;;;3.80;1.90;;;;;;;25.80;37.59;98025.13;8519488;27;20204;-85
2021/08/20 16:30:00;;;;;;;1.70;1.60;;;;;;;25.75;37.68;98022.09;8519239;27;20383;-84
2021/08/20 16:34:03;;;;;;;1.77;1.67;;;;;;;25.79;38.83;98033.22;8519364;27;20552;-84
2021/08/20 16:38:06;;;;;;;3.07;1.80;;;;;;;25.59;38.89;98030.88;8519498;27;20604;-84
2021/08/20 16:42:10;;;;;;;2.53;2.00;;;;;;;25.38;39.13;98035.75;8518827;27;20206;-85
2021/08/20 16:46:13;;;;;;;6.50;1.87;;;;;;;25.22;39.64;98036.50;8518903;27;20200;-84
2021/08/20 16:50:16;;;;;;;4.43;1.80;;;;;;;25.23;39.35;98043.50;8518456;27;20258;-84
2021/08/20 16:54:19;;;;;;;2.93;2.03;;;;;;;25.00;40.10;98043.16;8519434;27;20226;-85
2021/08/20 16:58:23;;;;;;;2.40;1.90;;;;;;;25.00;40.19;98044.03;8518248;27;20200;-84
2021/08/20 17:02:25;;;;;;;2.00;1.57;;;;;;;24.98;40.45;98046.81;8517693;27;20204;-85
2021/08/20 17:06:28;;;;;;;3.87;1.70;;;;;;;24.87;40.59;98041.78;8517840;27;20548;-84
2021/08/20 17:10:31;;;;;;;3.13;2.10;;;;;;;24.88;41.15;98039.97;8517933;27;20202;-84
2021/08/20 17:14:35;;;;;;;6.50;2.20;;;;;;;24.76;41.23;98042.06;8517394;27;20227;-84
2021/08/20 17:18:38;;;;;;;1.90;1.67;;;;;;;24.70;40.64;98046.16;8517455;27;20204;-85
2021/08/20 17:22:41;;;;;;;2.37;1.53;;;;;;;24.67;41.28;98050.94;8517315;27;20213;-84
2021/08/20 17:26:44;;;;;;;4.40;1.60;;;;;;;24.68;40.94;98050.78;8517107;27;20197;-84
2021/08/20 17:30:48;;;;;;;2.53;1.93;;;;;;;24.63;40.97;98053.06;8517098;27;20483;-84
2021/08/20 17:34:51;;;;;;;4.13;1.60;;;;;;;24.54;41.16;98059.28;8517003;27;20225;-85
2021/08/20 17:38:53;;;;;;;3.20;1.80;;;;;;;24.42;42.65;98056.00;8516710;27;20205;-85
2021/08/20 17:42:56;;;;;;;2.83;1.80;;;;;;;24.38;43.10;98071.38;8516810;27;20389;-85
2021/08/20 17:47:00;;;;;;;1.90;1.80;;;;;;;24.30;43.30;98067.84;8516621;27;20201;-85
2021/08/20 17:51:04;;;;;;;3.27;1.60;;;;;;;24.23;43.93;98080.00;8516302;27;20233;-85
2021/08/20 17:55:07;;;;;;;2.90;1.90;;;;;;;24.17;44.65;98074.34;8516116;28;20221;-85
2021/08/20 17:59:10;;;;;;;3.57;1.67;;;;;;;24.11;43.60;98074.94;8516461;28;20480;-85
2021/08/20 18:03:15;;;;;;;4.87;2.00;;;;;;;24.02;43.62;98081.13;8516369;28;20201;-85
2021/08/20 18:07:17;;;;;;;4.13;1.73;;;;;;;24.03;43.95;98090.75;8516438;27;20245;-85
2021/08/20 18:11:21;;;;;;;4.90;1.60;;;;;;;23.97;44.41;98088.69;8516584;27;20205;-85
2021/08/20 18:15:24;;;;;;;6.27;1.57;;;;;;;23.88;44.94;98092.25;8523110;27;20401;-84
2021/08/20 18:19:29;;;;;;;2.33;1.67;;;;;;;23.82;45.11;98093.66;8522910;27;20198;-84
2021/08/20 18:23:31;;;;;;;6.87;1.70;;;;;;;23.72;45.29;98100.78;8523121;27;20205;-84
2021/08/20 18:27:35;;;;;;;2.53;1.50;;;;;;;23.59;45.35;98099.34;8522980;27;20204;-84
2021/08/20 18:31:38;;;;;;;7.53;1.40;;;;;;;23.59;46.02;98096.69;8522784;27;20203;-84
2021/08/20 18:35:42;;;;;;;3.13;1.60;;;;;;;23.55;46.22;98102.41;8522613;27;20221;-85
2021/08/20 18:39:45;;;;;;;3.13;1.63;;;;;;;23.43;46.26;98107.06;8522426;27;20204;-84
2021/08/20 18:43:47;;;;;;;3.67;1.63;;;;;;;23.39;46.41;98117.06;8522367;27;20204;-84
2021/08/20 18:47:50;;;;;;;2.37;1.60;;;;;;;23.31;46.34;98119.63;8522348;27;20204;-84
2021/08/20 18:51:55;;;;;;;2.47;1.60;;;;;;;23.28;46.87;98116.44;8521971;27;20255;-84
2021/08/20 18:55:58;;;;;;;3.00;1.60;;;;;;;23.17;46.57;98123.56;8521906;27;20308;-84
2021/08/20 19:00:01;;;;;;;4.67;1.70;;;;;;;23.13;46.88;98134.56;8521911;27;20207;-84
2021/08/20 19:04:04;;;;;;;3.20;1.70;;;;;;;23.06;47.48;98128.19;8522078;27;20217;-84
2021/08/20 19:08:09;;;;;;;3.63;1.83;;;;;;;22.97;47.78;98135.13;8521660;27;20208;-84
2021/08/20 19:12:12;;;;;;;3.10;1.67;;;;;;;22.90;47.47;98144.59;8521513;27;20222;-84
2021/08/20 19:16:15;;;;;;;3.80;2.00;;;;;;;22.84;47.92;98144.16;8521703;27;20240;-84